Share

Alcova, WY (82620)

Natrona County International (KCPR) Elev 5289 ft | 42.90 °N, 106.47 °W | Change Station

Current weather conditions updated 59 minutes ago

Clear
Clear
53 °F
Feels Like 53 °F
N
12
Wind Variable Wind from NNE
Sunrise 6:18 AM
Sunset 7:55 PM
Moon Waning Gibbous

Tomorrow is forecast to be Cooler than today.

Pressure 30.02 in
Visibility 10.0 miles
Clouds Clear
Dew Point 32 °F
Humidity 45%
Rainfall 0.00 in
Snow Depth Not available.
UV 0 out of 16
Pollen 10.80 out of 12
Air Quality Not available.
Flu Activity Sporadic
METAR KCPR 210153Z 02010KT 10SM CLR 12/00 A3011 RMK AO2 SLP164 T01170000

More Conditions Fewer Conditions

Pressure 30.02 in
Visibility 10.0 miles
Clouds Clear
Dew Point 32 °F
Humidity 45%
Rainfall 0.00 in
Snow Depth Not available.
UV 0 out of 16
Pollen 10.80 out of 12
Air Quality Not available.
Flu Activity Sporadic
METAR KCPR 210153Z 02010KT 10SM CLR 12/00 A3011 RMK AO2 SLP164 T01170000

More Conditions Fewer Conditions

10-Day Weather Forecast

Almanac

Astronomy

Apr. 20, 2014 Rise Set
Actual Time 6:18 AM MDT 7:55 PM MDT
Civil Twilight 5:48 AM MDT 8:24 PM MDT
Nautical Twilight 5:12 AM MDT 9:01 PM MDT
Astronomical Twilight 4:34 AM MDT 9:39 PM MDT
Moon 12:39 AM MDT (4/20) 10:39 AM MDT (4/20)
Length of Visible Light 14h 36m
Length of Day
13h 36m
Tomorrow will be 2m 40s longer.
Waning Gibbous, 64% of the Moon is Illuminated
Today
Waning Gibbous
Apr 22
Last Quarter
Apr 29
New
May 6
First Quarter
May 14
Full

Today's Extremes

State Highs State Lows

Community

  • Sun Pillar and Geese
    Sun Pillar and Geese
  • Showers on the Way
    Showers on the Way
  • Easter Morning Fog
    Easter Morning Fog
  • Easter Dance
    Easter Dance
  • spring skiing mount Baker WA
    spring skiing mount Baker WA

WunderPhotos

Upload Photos

1,703,523 photos uploaded!

WunderBlogs® & News

Nearby

Snow Depth

Station Depth Elevation
Casper Mountain 49 in 7850 ft
Reno Hill 54 in 8500 ft
Laprele Creek 22 in 8375 ft
Windy Peak 22 in 7900 ft
Sage Creek Basin 23 in 7850 ft

Coastal Water Temperatures

Place Temperature
No Stations Reporting

Earthquake Activity

City Distance Mag. Time & Date
No recent earthquake activity has been reported nearby.
Minimum magnitude displayed is 2.5.

Nearby Weather Stations

There are no personal weather stations in this area.

What do you think?

We're not finished. Please let us know what you like, what you don't like, and what you are still missing.